sensor_id;sensor_type;location;lat;lon;timestamp;P1;durP1;ratioP1;P2;durP2;ratioP2
11496;SDS011;5805;51.542;7.230;2023-04-01T00:02:05;6.05;;;1.30;;
11496;SDS011;5805;51.542;7.230;2023-04-01T00:04:31;2.58;;;1.15;;
11496;SDS011;5805;51.542;7.230;2023-04-01T00:06:56;2.20;;;1.00;;
11496;SDS011;5805;51.542;7.230;2023-04-01T00:09:22;2.33;;;1.15;;
11496;SDS011;5805;51.542;7.230;2023-04-01T00:11:48;7.00;;;1.23;;
11496;SDS011;5805;51.542;7.230;2023-04-01T00:14:13;1.33;;;0.70;;
11496;SDS011;5805;51.542;7.230;2023-04-01T00:16:40;3.67;;;0.93;;
11496;SDS011;5805;51.542;7.230;2023-04-01T00:19:06;2.05;;;1.10;;
11496;SDS011;5805;51.542;7.230;2023-04-01T00:21:32;2.70;;;1.02;;
11496;SDS011;5805;51.542;7.230;2023-04-01T00:23:58;3.17;;;1.15;;
11496;SDS011;5805;51.542;7.230;2023-04-01T00:26:24;2.75;;;0.98;;
11496;SDS011;5805;51.542;7.230;2023-04-01T00:28:50;3.17;;;1.10;;
11496;SDS011;5805;51.542;7.230;2023-04-01T00:31:16;4.15;;;1.25;;
11496;SDS011;5805;51.542;7.230;2023-04-01T00:33:43;4.10;;;1.23;;
11496;SDS011;5805;51.542;7.230;2023-04-01T00:36:09;3.83;;;1.30;;
11496;SDS011;5805;51.542;7.230;2023-04-01T00:38:36;0.82;;;0.60;;
11496;SDS011;5805;51.542;7.230;2023-04-01T00:41:03;2.22;;;0.90;;
11496;SDS011;5805;51.542;7.230;2023-04-01T00:43:29;4.32;;;0.90;;
11496;SDS011;5805;51.542;7.230;2023-04-01T00:45:56;4.07;;;1.10;;
11496;SDS011;5805;51.542;7.230;2023-04-01T00:48:22;3.50;;;1.08;;
11496;SDS011;5805;51.542;7.230;2023-04-01T00:50:52;1.10;;;0.70;;
11496;SDS011;5805;51.542;7.230;2023-04-01T00:53:21;2.85;;;0.98;;
11496;SDS011;5805;51.542;7.230;2023-04-01T00:55:49;2.35;;;0.90;;
11496;SDS011;5805;51.542;7.230;2023-04-01T00:58:21;2.80;;;1.15;;
11496;SDS011;5805;51.542;7.230;2023-04-01T01:00:48;3.08;;;0.95;;
11496;SDS011;5805;51.542;7.230;2023-04-01T01:03:15;2.72;;;0.85;;
11496;SDS011;5805;51.542;7.230;2023-04-01T01:05:46;4.63;;;0.80;;
11496;SDS011;5805;51.542;7.230;2023-04-01T01:08:27;2.33;;;0.95;;
11496;SDS011;5805;51.542;7.230;2023-04-01T01:11:01;1.80;;;1.00;;
11496;SDS011;5805;51.542;7.230;2023-04-01T01:13:30;1.30;;;0.73;;
11496;SDS011;5805;51.542;7.230;2023-04-01T01:16:06;1.75;;;0.68;;
11496;SDS011;5805;51.542;7.230;2023-04-01T01:18:42;4.50;;;0.70;;
11496;SDS011;5805;51.542;7.230;2023-04-01T01:21:20;2.60;;;0.63;;
11496;SDS011;5805;51.542;7.230;2023-04-01T01:27:02;2.65;;;1.00;;
11496;SDS011;5805;51.542;7.230;2023-04-01T01:29:36;3.20;;;0.60;;
11496;SDS011;5805;51.542;7.230;2023-04-01T01:32:12;3.25;;;0.80;;
11496;SDS011;5805;51.542;7.230;2023-04-01T01:34:47;0.93;;;0.50;;
11496;SDS011;5805;51.542;7.230;2023-04-01T01:37:20;0.80;;;0.52;;
11496;SDS011;5805;51.542;7.230;2023-04-01T01:39:49;1.60;;;0.60;;
11496;SDS011;5805;51.542;7.230;2023-04-01T01:42:18;2.47;;;0.60;;
11496;SDS011;5805;51.542;7.230;2023-04-01T01:44:46;1.55;;;0.82;;
11496;SDS011;5805;51.542;7.230;2023-04-01T01:47:13;1.27;;;0.55;;
11496;SDS011;5805;51.542;7.230;2023-04-01T01:49:40;2.78;;;0.73;;
11496;SDS011;5805;51.542;7.230;2023-04-01T01:52:08;0.55;;;0.47;;
11496;SDS011;5805;51.542;7.230;2023-04-01T01:54:35;1.08;;;0.60;;
11496;SDS011;5805;51.542;7.230;2023-04-01T01:57:03;2.30;;;0.55;;
11496;SDS011;5805;51.542;7.230;2023-04-01T01:59:31;3.88;;;0.93;;
11496;SDS011;5805;51.542;7.230;2023-04-01T02:02:00;1.35;;;0.73;;
11496;SDS011;5805;51.542;7.230;2023-04-01T02:04:28;3.40;;;0.88;;
11496;SDS011;5805;51.542;7.230;2023-04-01T02:06:55;0.52;;;0.50;;
11496;SDS011;5805;51.542;7.230;2023-04-01T02:09:24;1.08;;;0.52;;
11496;SDS011;5805;51.542;7.230;2023-04-01T02:11:52;1.70;;;0.77;;
11496;SDS011;5805;51.542;7.230;2023-04-01T02:14:22;1.63;;;0.70;;
11496;SDS011;5805;51.542;7.230;2023-04-01T02:16:51;0.47;;;0.40;;
11496;SDS011;5805;51.542;7.230;2023-04-01T02:19:21;3.45;;;0.82;;
11496;SDS011;5805;51.542;7.230;2023-04-01T02:21:53;3.70;;;0.63;;
11496;SDS011;5805;51.542;7.230;2023-04-01T02:24:22;1.20;;;0.73;;
11496;SDS011;5805;51.542;7.230;2023-04-01T02:26:52;1.63;;;0.60;;
11496;SDS011;5805;51.542;7.230;2023-04-01T02:29:18;2.25;;;0.63;;
11496;SDS011;5805;51.542;7.230;2023-04-01T02:31:46;1.35;;;0.68;;
11496;SDS011;5805;51.542;7.230;2023-04-01T02:34:13;3.00;;;0.80;;
11496;SDS011;5805;51.542;7.230;2023-04-01T02:36:39;0.85;;;0.60;;
11496;SDS011;5805;51.542;7.230;2023-04-01T02:39:04;2.03;;;1.20;;
11496;SDS011;5805;51.542;7.230;2023-04-01T02:41:31;3.40;;;1.15;;
11496;SDS011;5805;51.542;7.230;2023-04-01T02:44:05;1.70;;;0.68;;
11496;SDS011;5805;51.542;7.230;2023-04-01T02:46:31;2.03;;;0.90;;
11496;SDS011;5805;51.542;7.230;2023-04-01T02:48:56;1.02;;;0.73;;
11496;SDS011;5805;51.542;7.230;2023-04-01T02:51:22;2.08;;;0.77;;
11496;SDS011;5805;51.542;7.230;2023-04-01T02:53:48;0.90;;;0.60;;
11496;SDS011;5805;51.542;7.230;2023-04-01T02:56:13;1.40;;;0.60;;
11496;SDS011;5805;51.542;7.230;2023-04-01T02:58:39;1.20;;;0.52;;
11496;SDS011;5805;51.542;7.230;2023-04-01T03:01:06;1.25;;;0.60;;
11496;SDS011;5805;51.542;7.230;2023-04-01T03:03:32;0.77;;;0.50;;
11496;SDS011;5805;51.542;7.230;2023-04-01T03:05:57;1.50;;;0.45;;
11496;SDS011;5805;51.542;7.230;2023-04-01T03:08:23;1.33;;;0.80;;
11496;SDS011;5805;51.542;7.230;2023-04-01T03:10:49;2.83;;;0.60;;
11496;SDS011;5805;51.542;7.230;2023-04-01T03:13:15;1.38;;;0.85;;
11496;SDS011;5805;51.542;7.230;2023-04-01T03:15:40;0.95;;;0.52;;
11496;SDS011;5805;51.542;7.230;2023-04-01T03:18:07;0.77;;;0.50;;
11496;SDS011;5805;51.542;7.230;2023-04-01T03:20:33;3.45;;;0.50;;
11496;SDS011;5805;51.542;7.230;2023-04-01T03:22:59;0.93;;;0.57;;
11496;SDS011;5805;51.542;7.230;2023-04-01T03:25:25;0.80;;;0.60;;
11496;SDS011;5805;51.542;7.230;2023-04-01T03:27:50;1.83;;;0.52;;
11496;SDS011;5805;51.542;7.230;2023-04-01T03:30:16;2.63;;;0.50;;
11496;SDS011;5805;51.542;7.230;2023-04-01T03:32:42;0.70;;;0.40;;
11496;SDS011;5805;51.542;7.230;2023-04-01T03:35:09;0.47;;;0.40;;
11496;SDS011;5805;51.542;7.230;2023-04-01T03:37:35;1.05;;;0.52;;
11496;SDS011;5805;51.542;7.230;2023-04-01T03:40:00;0.80;;;0.30;;
11496;SDS011;5805;51.542;7.230;2023-04-01T03:42:26;0.93;;;0.47;;
11496;SDS011;5805;51.542;7.230;2023-04-01T03:44:52;1.40;;;0.40;;
11496;SDS011;5805;51.542;7.230;2023-04-01T03:47:17;1.05;;;0.50;;
11496;SDS011;5805;51.542;7.230;2023-04-01T03:49:43;0.77;;;0.50;;
11496;SDS011;5805;51.542;7.230;2023-04-01T03:52:10;1.00;;;0.40;;
11496;SDS011;5805;51.542;7.230;2023-04-01T03:54:36;1.35;;;0.50;;
11496;SDS011;5805;51.542;7.230;2023-04-01T03:57:02;1.27;;;0.70;;
11496;SDS011;5805;51.542;7.230;2023-04-01T03:59:28;1.48;;;0.70;;
11496;SDS011;5805;51.542;7.230;2023-04-01T04:01:53;1.45;;;0.63;;
11496;SDS011;5805;51.542;7.230;2023-04-01T04:04:19;0.75;;;0.50;;
11496;SDS011;5805;51.542;7.230;2023-04-01T04:06:45;2.60;;;0.75;;
11496;SDS011;5805;51.542;7.230;2023-04-01T04:09:12;0.57;;;0.40;;
11496;SDS011;5805;51.542;7.230;2023-04-01T04:11:37;2.17;;;0.52;;
11496;SDS011;5805;51.542;7.230;2023-04-01T04:14:03;0.40;;;0.40;;
11496;SDS011;5805;51.542;7.230;2023-04-01T04:16:29;0.65;;;0.35;;
11496;SDS011;5805;51.542;7.230;2023-04-01T04:18:54;1.95;;;0.60;;
11496;SDS011;5805;51.542;7.230;2023-04-01T04:21:20;0.60;;;0.50;;
11496;SDS011;5805;51.542;7.230;2023-04-01T04:23:46;1.38;;;0.68;;
11496;SDS011;5805;51.542;7.230;2023-04-01T04:26:13;0.50;;;0.40;;
11496;SDS011;5805;51.542;7.230;2023-04-01T04:28:40;1.08;;;0.40;;
11496;SDS011;5805;51.542;7.230;2023-04-01T04:31:06;1.23;;;0.60;;
11496;SDS011;5805;51.542;7.230;2023-04-01T04:33:32;0.57;;;0.50;;
11496;SDS011;5805;51.542;7.230;2023-04-01T04:35:58;0.63;;;0.30;;
11496;SDS011;5805;51.542;7.230;2023-04-01T04:38:24;1.27;;;0.63;;
11496;SDS011;5805;51.542;7.230;2023-04-01T04:40:51;1.42;;;0.80;;
11496;SDS011;5805;51.542;7.230;2023-04-01T04:43:18;2.05;;;0.60;;
11496;SDS011;5805;51.542;7.230;2023-04-01T04:45:45;0.50;;;0.50;;
11496;SDS011;5805;51.542;7.230;2023-04-01T04:48:11;1.75;;;0.52;;
11496;SDS011;5805;51.542;7.230;2023-04-01T04:50:37;1.85;;;0.60;;
11496;SDS011;5805;51.542;7.230;2023-04-01T04:53:05;2.55;;;0.70;;
11496;SDS011;5805;51.542;7.230;2023-04-01T04:55:31;0.65;;;0.50;;
11496;SDS011;5805;51.542;7.230;2023-04-01T04:57:57;1.33;;;0.70;;
11496;SDS011;5805;51.542;7.230;2023-04-01T05:00:24;0.55;;;0.55;;
11496;SDS011;5805;51.542;7.230;2023-04-01T05:02:49;1.98;;;0.88;;
11496;SDS011;5805;51.542;7.230;2023-04-01T05:05:15;1.90;;;0.70;;
11496;SDS011;5805;51.542;7.230;2023-04-01T05:07:41;1.48;;;0.70;;
11496;SDS011;5805;51.542;7.230;2023-04-01T05:10:07;2.80;;;0.70;;
11496;SDS011;5805;51.542;7.230;2023-04-01T05:12:33;3.40;;;0.80;;
11496;SDS011;5805;51.542;7.230;2023-04-01T05:14:59;0.80;;;0.60;;
11496;SDS011;5805;51.542;7.230;2023-04-01T05:17:26;0.60;;;0.60;;
11496;SDS011;5805;51.542;7.230;2023-04-01T05:19:51;0.40;;;0.40;;
11496;SDS011;5805;51.542;7.230;2023-04-01T05:22:17;1.38;;;0.70;;
11496;SDS011;5805;51.542;7.230;2023-04-01T05:24:43;0.98;;;0.82;;
11496;SDS011;5805;51.542;7.230;2023-04-01T05:27:08;0.98;;;0.77;;
11496;SDS011;5805;51.542;7.230;2023-04-01T05:29:34;1.35;;;0.73;;
11496;SDS011;5805;51.542;7.230;2023-04-01T05:32:00;0.70;;;0.70;;
11496;SDS011;5805;51.542;7.230;2023-04-01T05:34:27;1.30;;;0.82;;
11496;SDS011;5805;51.542;7.230;2023-04-01T05:36:53;1.95;;;0.80;;
11496;SDS011;5805;51.542;7.230;2023-04-01T05:39:18;1.13;;;0.90;;
11496;SDS011;5805;51.542;7.230;2023-04-01T05:41:44;0.80;;;0.80;;
11496;SDS011;5805;51.542;7.230;2023-04-01T05:44:10;0.95;;;0.90;;
11496;SDS011;5805;51.542;7.230;2023-04-01T05:46:37;0.73;;;0.73;;
11496;SDS011;5805;51.542;7.230;2023-04-01T05:49:03;0.47;;;0.47;;
11496;SDS011;5805;51.542;7.230;2023-04-01T05:51:30;0.60;;;0.60;;
11496;SDS011;5805;51.542;7.230;2023-04-01T05:53:55;1.25;;;0.80;;
11496;SDS011;5805;51.542;7.230;2023-04-01T05:56:21;0.60;;;0.60;;
11496;SDS011;5805;51.542;7.230;2023-04-01T05:58:47;0.70;;;0.70;;
11496;SDS011;5805;51.542;7.230;2023-04-01T06:01:16;1.15;;;0.80;;
11496;SDS011;5805;51.542;7.230;2023-04-01T06:03:42;0.70;;;0.70;;
11496;SDS011;5805;51.542;7.230;2023-04-01T06:06:10;1.45;;;0.90;;
11496;SDS011;5805;51.542;7.230;2023-04-01T06:08:40;0.82;;;0.80;;
11496;SDS011;5805;51.542;7.230;2023-04-01T06:11:11;0.70;;;0.70;;
11496;SDS011;5805;51.542;7.230;2023-04-01T06:13:54;1.90;;;0.85;;
11496;SDS011;5805;51.542;7.230;2023-04-01T06:16:37;1.13;;;0.90;;
11496;SDS011;5805;51.542;7.230;2023-04-01T06:19:22;1.10;;;0.93;;
11496;SDS011;5805;51.542;7.230;2023-04-01T06:22:04;2.17;;;0.80;;
11496;SDS011;5805;51.542;7.230;2023-04-01T06:24:50;1.05;;;0.95;;
11496;SDS011;5805;51.542;7.230;2023-04-01T06:27:33;2.83;;;0.80;;
11496;SDS011;5805;51.542;7.230;2023-04-01T06:30:13;1.05;;;0.90;;
11496;SDS011;5805;51.542;7.230;2023-04-01T06:32:53;1.00;;;0.90;;
11496;SDS011;5805;51.542;7.230;2023-04-01T06:35:35;1.90;;;0.98;;
11496;SDS011;5805;51.542;7.230;2023-04-01T06:38:12;0.90;;;0.90;;
11496;SDS011;5805;51.542;7.230;2023-04-01T06:41:21;0.73;;;0.73;;
11496;SDS011;5805;51.542;7.230;2023-04-01T06:44:05;0.80;;;0.80;;
11496;SDS011;5805;51.542;7.230;2023-04-01T06:46:40;1.25;;;0.80;;
11496;SDS011;5805;51.542;7.230;2023-04-01T06:49:29;0.90;;;0.88;;
11496;SDS011;5805;51.542;7.230;2023-04-01T06:52:09;2.22;;;0.90;;
11496;SDS011;5805;51.542;7.230;2023-04-01T06:54:44;1.20;;;1.10;;
11496;SDS011;5805;51.542;7.230;2023-04-01T06:57:18;2.95;;;1.00;;
11496;SDS011;5805;51.542;7.230;2023-04-01T06:59:48;1.30;;;1.20;;
11496;SDS011;5805;51.542;7.230;2023-04-01T07:02:18;1.58;;;1.05;;
11496;SDS011;5805;51.542;7.230;2023-04-01T07:04:48;1.38;;;1.20;;
11496;SDS011;5805;51.542;7.230;2023-04-01T07:07:19;0.88;;;0.88;;
11496;SDS011;5805;51.542;7.230;2023-04-01T07:09:51;1.02;;;0.90;;
11496;SDS011;5805;51.542;7.230;2023-04-01T07:12:23;1.00;;;1.00;;
11496;SDS011;5805;51.542;7.230;2023-04-01T07:14:58;2.03;;;1.30;;
11496;SDS011;5805;51.542;7.230;2023-04-01T07:17:31;1.60;;;1.15;;
11496;SDS011;5805;51.542;7.230;2023-04-01T07:20:02;1.35;;;1.20;;
11496;SDS011;5805;51.542;7.230;2023-04-01T07:22:35;1.38;;;1.27;;
11496;SDS011;5805;51.542;7.230;2023-04-01T07:25:08;2.33;;;1.13;;
11496;SDS011;5805;51.542;7.230;2023-04-01T07:27:39;1.55;;;1.20;;
11496;SDS011;5805;51.542;7.230;2023-04-01T07:30:07;1.02;;;1.00;;
11496;SDS011;5805;51.542;7.230;2023-04-01T07:32:39;1.52;;;1.30;;
11496;SDS011;5805;51.542;7.230;2023-04-01T07:35:17;2.42;;;1.25;;
11496;SDS011;5805;51.542;7.230;2023-04-01T07:37:53;1.17;;;1.08;;
11496;SDS011;5805;51.542;7.230;2023-04-01T07:40:28;2.55;;;1.20;;
11496;SDS011;5805;51.542;7.230;2023-04-01T07:43:07;8.32;;;1.30;;
11496;SDS011;5805;51.542;7.230;2023-04-01T07:45:42;1.25;;;1.15;;
11496;SDS011;5805;51.542;7.230;2023-04-01T07:48:18;1.15;;;1.05;;
11496;SDS011;5805;51.542;7.230;2023-04-01T07:50:52;1.50;;;1.10;;
11496;SDS011;5805;51.542;7.230;2023-04-01T07:53:26;1.30;;;1.20;;
11496;SDS011;5805;51.542;7.230;2023-04-01T07:56:01;0.95;;;0.93;;
11496;SDS011;5805;51.542;7.230;2023-04-01T07:58:33;1.98;;;1.13;;
11496;SDS011;5805;51.542;7.230;2023-04-01T08:01:05;1.80;;;1.13;;
11496;SDS011;5805;51.542;7.230;2023-04-01T08:03:45;1.65;;;1.30;;
11496;SDS011;5805;51.542;7.230;2023-04-01T08:06:20;1.98;;;1.40;;
11496;SDS011;5805;51.542;7.230;2023-04-01T08:08:53;1.13;;;1.08;;
11496;SDS011;5805;51.542;7.230;2023-04-01T08:11:28;2.13;;;1.40;;
11496;SDS011;5805;51.542;7.230;2023-04-01T08:14:06;1.65;;;1.55;;
11496;SDS011;5805;51.542;7.230;2023-04-01T08:16:41;1.60;;;1.50;;
11496;SDS011;5805;51.542;7.230;2023-04-01T08:19:15;1.40;;;1.30;;
11496;SDS011;5805;51.542;7.230;2023-04-01T08:21:52;1.88;;;1.77;;
11496;SDS011;5805;51.542;7.230;2023-04-01T08:24:24;1.73;;;1.50;;
11496;SDS011;5805;51.542;7.230;2023-04-01T08:26:55;2.00;;;1.80;;
11496;SDS011;5805;51.542;7.230;2023-04-01T08:29:26;2.90;;;1.65;;
11496;SDS011;5805;51.542;7.230;2023-04-01T08:32:06;2.08;;;1.80;;
11496;SDS011;5805;51.542;7.230;2023-04-01T08:34:36;1.85;;;1.75;;
11496;SDS011;5805;51.542;7.230;2023-04-01T08:37:05;2.10;;;1.90;;
11496;SDS011;5805;51.542;7.230;2023-04-01T08:39:37;2.25;;;2.05;;
11496;SDS011;5805;51.542;7.230;2023-04-01T08:42:14;2.55;;;2.25;;
11496;SDS011;5805;51.542;7.230;2023-04-01T08:45:05;3.17;;;1.98;;
11496;SDS011;5805;51.542;7.230;2023-04-01T08:47:49;1.70;;;1.60;;
11496;SDS011;5805;51.542;7.230;2023-04-01T08:50:39;2.58;;;2.05;;
11496;SDS011;5805;51.542;7.230;2023-04-01T08:53:26;2.67;;;2.10;;
11496;SDS011;5805;51.542;7.230;2023-04-01T08:56:03;2.15;;;1.95;;
11496;SDS011;5805;51.542;7.230;2023-04-01T08:58:52;2.47;;;2.28;;
11496;SDS011;5805;51.542;7.230;2023-04-01T09:01:35;2.83;;;2.20;;
11496;SDS011;5805;51.542;7.230;2023-04-01T09:04:25;2.33;;;2.13;;
11496;SDS011;5805;51.542;7.230;2023-04-01T09:07:02;3.00;;;2.55;;
11496;SDS011;5805;51.542;7.230;2023-04-01T09:12:49;2.80;;;2.58;;
11496;SDS011;5805;51.542;7.230;2023-04-01T09:18:30;3.20;;;2.90;;
11496;SDS011;5805;51.542;7.230;2023-04-01T09:21:17;3.05;;;2.80;;
11496;SDS011;5805;51.542;7.230;2023-04-01T09:24:14;2.80;;;2.60;;
11496;SDS011;5805;51.542;7.230;2023-04-01T09:26:56;3.10;;;2.80;;
11496;SDS011;5805;51.542;7.230;2023-04-01T09:29:32;3.30;;;2.97;;
11496;SDS011;5805;51.542;7.230;2023-04-01T09:35:24;3.78;;;2.95;;
11496;SDS011;5805;51.542;7.230;2023-04-01T09:37:59;3.30;;;3.00;;
11496;SDS011;5805;51.542;7.230;2023-04-01T09:40:39;3.30;;;3.00;;
11496;SDS011;5805;51.542;7.230;2023-04-01T09:43:16;4.07;;;3.35;;
11496;SDS011;5805;51.542;7.230;2023-04-01T09:45:53;3.50;;;3.20;;
11496;SDS011;5805;51.542;7.230;2023-04-01T09:48:38;3.92;;;3.63;;
11496;SDS011;5805;51.542;7.230;2023-04-01T09:51:22;3.35;;;3.05;;
11496;SDS011;5805;51.542;7.230;2023-04-01T09:54:00;3.90;;;3.60;;
11496;SDS011;5805;51.542;7.230;2023-04-01T09:56:39;4.13;;;3.60;;
11496;SDS011;5805;51.542;7.230;2023-04-01T10:02:59;4.03;;;3.63;;
11496;SDS011;5805;51.542;7.230;2023-04-01T10:06:03;4.47;;;4.07;;
11496;SDS011;5805;51.542;7.230;2023-04-01T10:09:05;4.10;;;3.72;;
11496;SDS011;5805;51.542;7.230;2023-04-01T10:12:00;4.80;;;3.90;;
11496;SDS011;5805;51.542;7.230;2023-04-01T10:18:13;7.45;;;3.70;;
11496;SDS011;5805;51.542;7.230;2023-04-01T10:21:05;4.18;;;3.78;;
11496;SDS011;5805;51.542;7.230;2023-04-01T10:24:07;4.13;;;3.70;;
11496;SDS011;5805;51.542;7.230;2023-04-01T10:27:06;3.97;;;3.67;;
11496;SDS011;5805;51.542;7.230;2023-04-01T10:35:57;3.95;;;3.40;;
11496;SDS011;5805;51.542;7.230;2023-04-01T10:41:51;3.60;;;3.30;;
11496;SDS011;5805;51.542;7.230;2023-04-01T10:44:42;3.50;;;3.20;;
11496;SDS011;5805;51.542;7.230;2023-04-01T10:50:39;3.38;;;3.08;;
11496;SDS011;5805;51.542;7.230;2023-04-01T10:53:30;3.47;;;3.10;;
11496;SDS011;5805;51.542;7.230;2023-04-01T10:59:06;3.50;;;3.20;;
11496;SDS011;5805;51.542;7.230;2023-04-01T11:08:15;3.45;;;2.92;;
11496;SDS011;5805;51.542;7.230;2023-04-01T11:17:42;3.58;;;3.28;;
11496;SDS011;5805;51.542;7.230;2023-04-01T11:26:43;4.10;;;3.70;;
11496;SDS011;5805;51.542;7.230;2023-04-01T11:32:19;4.70;;;3.55;;
11496;SDS011;5805;51.542;7.230;2023-04-01T11:34:57;3.80;;;3.50;;
11496;SDS011;5805;51.542;7.230;2023-04-01T11:37:38;5.13;;;4.30;;
11496;SDS011;5805;51.542;7.230;2023-04-01T11:40:14;4.78;;;4.38;;
11496;SDS011;5805;51.542;7.230;2023-04-01T11:42:46;4.57;;;4.18;;
11496;SDS011;5805;51.542;7.230;2023-04-01T11:45:19;5.00;;;4.50;;
11496;SDS011;5805;51.542;7.230;2023-04-01T11:50:52;5.65;;;5.13;;
11496;SDS011;5805;51.542;7.230;2023-04-01T11:53:36;5.22;;;4.70;;
11496;SDS011;5805;51.542;7.230;2023-04-01T11:56:24;6.20;;;4.38;;
11496;SDS011;5805;51.542;7.230;2023-04-01T11:59:08;5.32;;;4.82;;
11496;SDS011;5805;51.542;7.230;2023-04-01T12:01:54;4.07;;;3.78;;
11496;SDS011;5805;51.542;7.230;2023-04-01T12:07:32;3.83;;;3.40;;
11496;SDS011;5805;51.542;7.230;2023-04-01T12:10:13;3.95;;;3.30;;
11496;SDS011;5805;51.542;7.230;2023-04-01T12:12:46;3.85;;;3.45;;
11496;SDS011;5805;51.542;7.230;2023-04-01T12:15:21;4.10;;;3.70;;
11496;SDS011;5805;51.542;7.230;2023-04-01T12:17:54;4.18;;;3.78;;
11496;SDS011;5805;51.542;7.230;2023-04-01T12:20:36;5.03;;;3.63;;
11496;SDS011;5805;51.542;7.230;2023-04-01T12:23:15;3.53;;;3.17;;
11496;SDS011;5805;51.542;7.230;2023-04-01T12:26:00;3.47;;;3.17;;
11496;SDS011;5805;51.542;7.230;2023-04-01T12:28:55;3.55;;;3.10;;
11496;SDS011;5805;51.542;7.230;2023-04-01T12:31:34;3.88;;;3.58;;
11496;SDS011;5805;51.542;7.230;2023-04-01T12:37:08;4.70;;;4.30;;
11496;SDS011;5805;51.542;7.230;2023-04-01T12:39:48;5.00;;;4.50;;
11496;SDS011;5805;51.542;7.230;2023-04-01T12:45:33;5.00;;;4.53;;
11496;SDS011;5805;51.542;7.230;2023-04-01T12:48:08;6.07;;;5.43;;
11496;SDS011;5805;51.542;7.230;2023-04-01T12:51:05;5.82;;;5.28;;
11496;SDS011;5805;51.542;7.230;2023-04-01T12:57:10;6.00;;;5.40;;
11496;SDS011;5805;51.542;7.230;2023-04-01T12:59:51;11.32;;;5.50;;
11496;SDS011;5805;51.542;7.230;2023-04-01T13:02:46;5.75;;;4.60;;
11496;SDS011;5805;51.542;7.230;2023-04-01T13:08:41;5.03;;;4.30;;
11496;SDS011;5805;51.542;7.230;2023-04-01T13:11:15;5.00;;;4.13;;
11496;SDS011;5805;51.542;7.230;2023-04-01T13:13:50;4.40;;;3.60;;
11496;SDS011;5805;51.542;7.230;2023-04-01T13:16:30;4.18;;;3.80;;
11496;SDS011;5805;51.542;7.230;2023-04-01T13:19:00;3.83;;;3.25;;
11496;SDS011;5805;51.542;7.230;2023-04-01T13:21:34;4.65;;;3.55;;
11496;SDS011;5805;51.542;7.230;2023-04-01T13:24:11;4.15;;;3.10;;
11496;SDS011;5805;51.542;7.230;2023-04-01T13:26:48;3.38;;;3.08;;
11496;SDS011;5805;51.542;7.230;2023-04-01T13:29:23;4.75;;;2.83;;
11496;SDS011;5805;51.542;7.230;2023-04-01T13:32:00;3.40;;;2.90;;
11496;SDS011;5805;51.542;7.230;2023-04-01T13:34:41;4.47;;;3.95;;
11496;SDS011;5805;51.542;7.230;2023-04-01T13:37:29;4.70;;;3.63;;
11496;SDS011;5805;51.542;7.230;2023-04-01T13:40:25;3.72;;;3.42;;
11496;SDS011;5805;51.542;7.230;2023-04-01T13:42:59;4.70;;;3.88;;
11496;SDS011;5805;51.542;7.230;2023-04-01T13:45:32;5.53;;;3.90;;
11496;SDS011;5805;51.542;7.230;2023-04-01T13:48:18;3.97;;;3.58;;
11496;SDS011;5805;51.542;7.230;2023-04-01T13:51:18;3.95;;;3.55;;
11496;SDS011;5805;51.542;7.230;2023-04-01T13:54:10;4.50;;;3.90;;
11496;SDS011;5805;51.542;7.230;2023-04-01T13:56:50;4.70;;;3.38;;
11496;SDS011;5805;51.542;7.230;2023-04-01T13:59:30;3.58;;;2.70;;
11496;SDS011;5805;51.542;7.230;2023-04-01T14:02:24;2.60;;;2.40;;
11496;SDS011;5805;51.542;7.230;2023-04-01T14:05:15;2.95;;;2.38;;
11496;SDS011;5805;51.542;7.230;2023-04-01T14:07:59;5.35;;;2.90;;
11496;SDS011;5805;51.542;7.230;2023-04-01T14:10:38;3.55;;;3.25;;
11496;SDS011;5805;51.542;7.230;2023-04-01T14:13:09;3.97;;;3.53;;
11496;SDS011;5805;51.542;7.230;2023-04-01T14:15:49;4.38;;;3.97;;
11496;SDS011;5805;51.542;7.230;2023-04-01T14:18:39;4.63;;;4.10;;
11496;SDS011;5805;51.542;7.230;2023-04-01T14:21:17;4.65;;;4.13;;
11496;SDS011;5805;51.542;7.230;2023-04-01T14:27:09;5.25;;;3.85;;
11496;SDS011;5805;51.542;7.230;2023-04-01T14:29:56;5.13;;;4.15;;
11496;SDS011;5805;51.542;7.230;2023-04-01T14:32:36;4.82;;;3.90;;
11496;SDS011;5805;51.542;7.230;2023-04-01T14:35:14;4.53;;;3.92;;
11496;SDS011;5805;51.542;7.230;2023-04-01T14:38:09;6.55;;;3.85;;
11496;SDS011;5805;51.542;7.230;2023-04-01T14:41:00;4.25;;;3.78;;
11496;SDS011;5805;51.542;7.230;2023-04-01T14:43:41;4.75;;;4.25;;
11496;SDS011;5805;51.542;7.230;2023-04-01T14:49:34;4.35;;;3.95;;
11496;SDS011;5805;51.542;7.230;2023-04-01T14:52:05;4.55;;;4.15;;
11496;SDS011;5805;51.542;7.230;2023-04-01T14:54:39;4.35;;;3.95;;
11496;SDS011;5805;51.542;7.230;2023-04-01T14:57:10;4.45;;;4.05;;
11496;SDS011;5805;51.542;7.230;2023-04-01T14:59:39;7.07;;;4.63;;
11496;SDS011;5805;51.542;7.230;2023-04-01T15:02:08;4.97;;;4.57;;
11496;SDS011;5805;51.542;7.230;2023-04-01T15:04:56;4.63;;;4.10;;
11496;SDS011;5805;51.542;7.230;2023-04-01T15:07:39;5.22;;;4.72;;
11496;SDS011;5805;51.542;7.230;2023-04-01T15:10:20;4.95;;;4.55;;
11496;SDS011;5805;51.542;7.230;2023-04-01T15:13:05;5.43;;;4.93;;
11496;SDS011;5805;51.542;7.230;2023-04-01T15:15:40;5.70;;;5.20;;
11496;SDS011;5805;51.542;7.230;2023-04-01T15:18:17;6.28;;;5.68;;
11496;SDS011;5805;51.542;7.230;2023-04-01T15:20:58;6.03;;;5.18;;
11496;SDS011;5805;51.542;7.230;2023-04-01T15:23:51;6.25;;;5.65;;
11496;SDS011;5805;51.542;7.230;2023-04-01T15:26:26;6.30;;;5.75;;
11496;SDS011;5805;51.542;7.230;2023-04-01T15:29:12;6.53;;;5.82;;
11496;SDS011;5805;51.542;7.230;2023-04-01T15:32:00;7.15;;;6.45;;
11496;SDS011;5805;51.542;7.230;2023-04-01T15:34:34;5.63;;;5.07;;
11496;SDS011;5805;51.542;7.230;2023-04-01T15:37:08;6.63;;;6.03;;
11496;SDS011;5805;51.542;7.230;2023-04-01T15:39:50;7.00;;;6.40;;
11496;SDS011;5805;51.542;7.230;2023-04-01T15:45:13;6.25;;;5.65;;
11496;SDS011;5805;51.542;7.230;2023-04-01T15:47:44;6.63;;;6.03;;
11496;SDS011;5805;51.542;7.230;2023-04-01T15:50:28;7.45;;;6.57;;
11496;SDS011;5805;51.542;7.230;2023-04-01T15:53:12;7.28;;;6.57;;
11496;SDS011;5805;51.542;7.230;2023-04-01T15:56:16;7.88;;;6.93;;
11496;SDS011;5805;51.542;7.230;2023-04-01T15:58:49;7.95;;;7.00;;
11496;SDS011;5805;51.542;7.230;2023-04-01T16:01:26;7.68;;;6.88;;
11496;SDS011;5805;51.542;7.230;2023-04-01T16:04:04;8.48;;;7.63;;
11496;SDS011;5805;51.542;7.230;2023-04-01T16:06:47;7.45;;;6.75;;
11496;SDS011;5805;51.542;7.230;2023-04-01T16:09:25;7.93;;;6.85;;
11496;SDS011;5805;51.542;7.230;2023-04-01T16:12:02;6.82;;;6.15;;
11496;SDS011;5805;51.542;7.230;2023-04-01T16:14:35;8.13;;;6.50;;
11496;SDS011;5805;51.542;7.230;2023-04-01T16:17:13;6.38;;;5.82;;
11496;SDS011;5805;51.542;7.230;2023-04-01T16:19:50;7.45;;;6.75;;
11496;SDS011;5805;51.542;7.230;2023-04-01T16:22:19;8.20;;;6.85;;
11496;SDS011;5805;51.542;7.230;2023-04-01T16:24:51;7.22;;;6.50;;
11496;SDS011;5805;51.542;7.230;2023-04-01T16:27:25;6.90;;;6.20;;
11496;SDS011;5805;51.542;7.230;2023-04-01T16:29:58;6.57;;;5.90;;
11496;SDS011;5805;51.542;7.230;2023-04-01T16:32:31;6.00;;;5.40;;
11496;SDS011;5805;51.542;7.230;2023-04-01T16:35:13;5.95;;;5.35;;
11496;SDS011;5805;51.542;7.230;2023-04-01T16:37:46;4.88;;;4.40;;
11496;SDS011;5805;51.542;7.230;2023-04-01T16:40:16;4.55;;;4.15;;
11496;SDS011;5805;51.542;7.230;2023-04-01T16:42:52;4.75;;;4.32;;
11496;SDS011;5805;51.542;7.230;2023-04-01T16:45:24;4.07;;;3.60;;
11496;SDS011;5805;51.542;7.230;2023-04-01T16:47:59;3.75;;;3.45;;
11496;SDS011;5805;51.542;7.230;2023-04-01T16:50:39;4.03;;;3.63;;
11496;SDS011;5805;51.542;7.230;2023-04-01T16:53:14;5.95;;;4.30;;
11496;SDS011;5805;51.542;7.230;2023-04-01T16:55:46;5.30;;;4.47;;
11496;SDS011;5805;51.542;7.230;2023-04-01T16:58:18;4.68;;;4.28;;
11496;SDS011;5805;51.542;7.230;2023-04-01T17:00:49;5.20;;;4.60;;
11496;SDS011;5805;51.542;7.230;2023-04-01T17:03:17;5.60;;;5.00;;
11496;SDS011;5805;51.542;7.230;2023-04-01T17:05:49;5.80;;;5.03;;
11496;SDS011;5805;51.542;7.230;2023-04-01T17:08:29;7.38;;;4.85;;
11496;SDS011;5805;51.542;7.230;2023-04-01T17:11:06;5.20;;;4.70;;